sensor_id;sensor_type;location;lat;lon;timestamp;P1;durP1;ratioP1;P2;durP2;ratioP2
15536;SDS011;7870;52.448;13.270;2023-03-01T00:01:52;15.80;;;8.60;;
15536;SDS011;7870;52.448;13.270;2023-03-01T00:04:19;12.68;;;8.82;;
15536;SDS011;7870;52.448;13.270;2023-03-01T00:06:45;15.38;;;9.10;;
15536;SDS011;7870;52.448;13.270;2023-03-01T00:09:13;13.45;;;8.25;;
15536;SDS011;7870;52.448;13.270;2023-03-01T00:11:40;14.05;;;8.75;;
15536;SDS011;7870;52.448;13.270;2023-03-01T00:14:07;14.13;;;8.70;;
15536;SDS011;7870;52.448;13.270;2023-03-01T00:16:34;13.98;;;8.90;;
15536;SDS011;7870;52.448;13.270;2023-03-01T00:19:05;12.50;;;8.93;;
15536;SDS011;7870;52.448;13.270;2023-03-01T00:21:32;15.55;;;9.38;;
15536;SDS011;7870;52.448;13.270;2023-03-01T00:24:00;16.63;;;8.55;;
15536;SDS011;7870;52.448;13.270;2023-03-01T00:26:27;15.80;;;9.48;;
15536;SDS011;7870;52.448;13.270;2023-03-01T00:28:54;13.30;;;9.32;;
15536;SDS011;7870;52.448;13.270;2023-03-01T00:31:24;14.48;;;10.65;;
15536;SDS011;7870;52.448;13.270;2023-03-01T00:33:57;13.65;;;9.10;;
15536;SDS011;7870;52.448;13.270;2023-03-01T00:36:26;17.10;;;9.60;;
15536;SDS011;7870;52.448;13.270;2023-03-01T00:38:55;12.90;;;8.77;;
15536;SDS011;7870;52.448;13.270;2023-03-01T00:41:22;16.65;;;9.07;;
15536;SDS011;7870;52.448;13.270;2023-03-01T00:43:49;14.80;;;9.35;;
15536;SDS011;7870;52.448;13.270;2023-03-01T00:46:17;14.38;;;9.15;;
15536;SDS011;7870;52.448;13.270;2023-03-01T00:48:45;16.83;;;10.73;;
15536;SDS011;7870;52.448;13.270;2023-03-01T00:51:13;17.63;;;11.05;;
15536;SDS011;7870;52.448;13.270;2023-03-01T00:53:52;17.98;;;10.45;;
15536;SDS011;7870;52.448;13.270;2023-03-01T00:56:19;15.20;;;11.18;;
15536;SDS011;7870;52.448;13.270;2023-03-01T00:58:47;16.02;;;9.95;;
15536;SDS011;7870;52.448;13.270;2023-03-01T01:01:15;18.10;;;11.98;;
15536;SDS011;7870;52.448;13.270;2023-03-01T01:03:46;16.88;;;9.90;;
15536;SDS011;7870;52.448;13.270;2023-03-01T01:06:17;14.15;;;9.85;;
15536;SDS011;7870;52.448;13.270;2023-03-01T01:08:45;13.88;;;10.35;;
15536;SDS011;7870;52.448;13.270;2023-03-01T01:11:12;14.90;;;9.57;;
15536;SDS011;7870;52.448;13.270;2023-03-01T01:13:39;15.27;;;10.30;;
15536;SDS011;7870;52.448;13.270;2023-03-01T01:16:07;14.82;;;9.90;;
15536;SDS011;7870;52.448;13.270;2023-03-01T01:18:34;13.55;;;9.07;;
15536;SDS011;7870;52.448;13.270;2023-03-01T01:21:08;16.15;;;9.57;;
15536;SDS011;7870;52.448;13.270;2023-03-01T01:23:36;15.57;;;9.85;;
15536;SDS011;7870;52.448;13.270;2023-03-01T01:26:04;16.67;;;10.43;;
15536;SDS011;7870;52.448;13.270;2023-03-01T01:28:31;16.02;;;10.95;;
15536;SDS011;7870;52.448;13.270;2023-03-01T01:30:58;18.58;;;10.75;;
15536;SDS011;7870;52.448;13.270;2023-03-01T01:33:25;19.23;;;11.25;;
15536;SDS011;7870;52.448;13.270;2023-03-01T01:35:51;17.27;;;10.23;;
15536;SDS011;7870;52.448;13.270;2023-03-01T01:38:18;16.58;;;11.07;;
15536;SDS011;7870;52.448;13.270;2023-03-01T01:40:45;16.10;;;10.20;;
15536;SDS011;7870;52.448;13.270;2023-03-01T01:43:17;18.73;;;10.55;;
15536;SDS011;7870;52.448;13.270;2023-03-01T01:45:45;16.23;;;10.18;;
15536;SDS011;7870;52.448;13.270;2023-03-01T01:48:13;16.10;;;11.07;;
15536;SDS011;7870;52.448;13.270;2023-03-01T01:50:42;16.77;;;11.38;;
15536;SDS011;7870;52.448;13.270;2023-03-01T01:53:12;17.65;;;10.60;;
15536;SDS011;7870;52.448;13.270;2023-03-01T01:55:45;14.95;;;10.82;;
15536;SDS011;7870;52.448;13.270;2023-03-01T01:58:15;17.73;;;11.70;;
15536;SDS011;7870;52.448;13.270;2023-03-01T02:00:43;17.17;;;11.10;;
15536;SDS011;7870;52.448;13.270;2023-03-01T02:03:10;16.55;;;11.70;;
15536;SDS011;7870;52.448;13.270;2023-03-01T02:05:45;19.00;;;11.63;;
15536;SDS011;7870;52.448;13.270;2023-03-01T02:08:20;17.02;;;11.20;;
15536;SDS011;7870;52.448;13.270;2023-03-01T02:10:48;15.90;;;11.15;;
15536;SDS011;7870;52.448;13.270;2023-03-01T02:13:15;15.52;;;10.38;;
15536;SDS011;7870;52.448;13.270;2023-03-01T02:15:42;17.38;;;11.43;;
15536;SDS011;7870;52.448;13.270;2023-03-01T02:18:12;16.65;;;10.63;;
15536;SDS011;7870;52.448;13.270;2023-03-01T02:23:29;17.58;;;11.82;;
15536;SDS011;7870;52.448;13.270;2023-03-01T02:25:57;19.80;;;12.20;;
15536;SDS011;7870;52.448;13.270;2023-03-01T02:28:31;18.13;;;11.85;;
15536;SDS011;7870;52.448;13.270;2023-03-01T02:30:58;21.10;;;11.68;;
15536;SDS011;7870;52.448;13.270;2023-03-01T02:33:44;17.15;;;11.18;;
15536;SDS011;7870;52.448;13.270;2023-03-01T02:36:16;17.95;;;11.15;;
15536;SDS011;7870;52.448;13.270;2023-03-01T02:38:45;17.52;;;10.55;;
15536;SDS011;7870;52.448;13.270;2023-03-01T02:41:13;18.08;;;11.35;;
15536;SDS011;7870;52.448;13.270;2023-03-01T02:43:41;17.25;;;11.38;;
15536;SDS011;7870;52.448;13.270;2023-03-01T02:46:16;15.90;;;10.65;;
15536;SDS011;7870;52.448;13.270;2023-03-01T02:48:46;15.80;;;10.80;;
15536;SDS011;7870;52.448;13.270;2023-03-01T02:54:16;16.15;;;11.00;;
15536;SDS011;7870;52.448;13.270;2023-03-01T02:56:55;17.92;;;11.20;;
15536;SDS011;7870;52.448;13.270;2023-03-01T02:59:24;20.85;;;12.20;;
15536;SDS011;7870;52.448;13.270;2023-03-01T03:01:52;15.90;;;11.47;;
15536;SDS011;7870;52.448;13.270;2023-03-01T03:04:18;16.83;;;11.68;;
15536;SDS011;7870;52.448;13.270;2023-03-01T03:06:49;16.58;;;11.63;;
15536;SDS011;7870;52.448;13.270;2023-03-01T03:09:16;18.40;;;11.57;;
15536;SDS011;7870;52.448;13.270;2023-03-01T03:11:44;19.85;;;12.23;;
15536;SDS011;7870;52.448;13.270;2023-03-01T03:14:12;17.70;;;11.65;;
15536;SDS011;7870;52.448;13.270;2023-03-01T03:16:43;19.05;;;12.85;;
15536;SDS011;7870;52.448;13.270;2023-03-01T03:19:14;17.30;;;11.30;;
15536;SDS011;7870;52.448;13.270;2023-03-01T03:21:41;17.75;;;11.70;;
15536;SDS011;7870;52.448;13.270;2023-03-01T03:24:07;19.73;;;11.63;;
15536;SDS011;7870;52.448;13.270;2023-03-01T03:26:34;22.92;;;12.77;;
15536;SDS011;7870;52.448;13.270;2023-03-01T03:29:01;18.27;;;12.07;;
15536;SDS011;7870;52.448;13.270;2023-03-01T03:31:27;18.20;;;11.65;;
15536;SDS011;7870;52.448;13.270;2023-03-01T03:33:54;20.25;;;12.70;;
15536;SDS011;7870;52.448;13.270;2023-03-01T03:36:21;22.27;;;13.40;;
15536;SDS011;7870;52.448;13.270;2023-03-01T03:38:49;17.13;;;12.30;;
15536;SDS011;7870;52.448;13.270;2023-03-01T03:41:16;20.23;;;12.18;;
15536;SDS011;7870;52.448;13.270;2023-03-01T03:43:43;18.67;;;12.95;;
15536;SDS011;7870;52.448;13.270;2023-03-01T03:46:10;17.65;;;11.85;;
15536;SDS011;7870;52.448;13.270;2023-03-01T03:48:41;21.45;;;12.80;;
15536;SDS011;7870;52.448;13.270;2023-03-01T03:51:10;18.42;;;11.95;;
15536;SDS011;7870;52.448;13.270;2023-03-01T03:53:38;16.08;;;12.18;;
15536;SDS011;7870;52.448;13.270;2023-03-01T03:56:05;15.70;;;11.52;;
15536;SDS011;7870;52.448;13.270;2023-03-01T03:58:32;16.48;;;11.88;;
15536;SDS011;7870;52.448;13.270;2023-03-01T04:00:59;19.25;;;14.18;;
15536;SDS011;7870;52.448;13.270;2023-03-01T04:03:27;21.50;;;12.35;;
15536;SDS011;7870;52.448;13.270;2023-03-01T04:05:56;16.38;;;12.25;;
15536;SDS011;7870;52.448;13.270;2023-03-01T04:08:24;18.48;;;11.93;;
15536;SDS011;7870;52.448;13.270;2023-03-01T04:10:52;16.63;;;11.43;;
15536;SDS011;7870;52.448;13.270;2023-03-01T04:13:22;24.50;;;13.30;;
15536;SDS011;7870;52.448;13.270;2023-03-01T04:15:49;15.50;;;10.93;;
15536;SDS011;7870;52.448;13.270;2023-03-01T04:18:17;17.98;;;11.45;;
15536;SDS011;7870;52.448;13.270;2023-03-01T04:20:45;16.75;;;12.05;;
15536;SDS011;7870;52.448;13.270;2023-03-01T04:23:12;21.13;;;12.70;;
15536;SDS011;7870;52.448;13.270;2023-03-01T04:25:46;18.73;;;12.75;;
15536;SDS011;7870;52.448;13.270;2023-03-01T04:28:21;17.30;;;11.95;;
15536;SDS011;7870;52.448;13.270;2023-03-01T04:30:51;16.88;;;11.32;;
15536;SDS011;7870;52.448;13.270;2023-03-01T04:33:18;16.48;;;11.05;;
15536;SDS011;7870;52.448;13.270;2023-03-01T04:35:45;17.27;;;12.73;;
15536;SDS011;7870;52.448;13.270;2023-03-01T04:38:11;18.95;;;11.60;;
15536;SDS011;7870;52.448;13.270;2023-03-01T04:40:38;17.30;;;12.48;;
15536;SDS011;7870;52.448;13.270;2023-03-01T04:43:05;15.40;;;11.25;;
15536;SDS011;7870;52.448;13.270;2023-03-01T04:45:32;18.15;;;12.82;;
15536;SDS011;7870;52.448;13.270;2023-03-01T04:48:01;17.25;;;11.40;;
15536;SDS011;7870;52.448;13.270;2023-03-01T04:50:27;19.92;;;12.90;;
15536;SDS011;7870;52.448;13.270;2023-03-01T04:52:54;18.38;;;12.00;;
15536;SDS011;7870;52.448;13.270;2023-03-01T04:55:27;19.10;;;12.55;;
15536;SDS011;7870;52.448;13.270;2023-03-01T04:57:55;17.33;;;11.98;;
15536;SDS011;7870;52.448;13.270;2023-03-01T05:00:21;18.63;;;12.35;;
15536;SDS011;7870;52.448;13.270;2023-03-01T05:02:53;17.65;;;12.75;;
15536;SDS011;7870;52.448;13.270;2023-03-01T05:05:23;17.30;;;13.10;;
15536;SDS011;7870;52.448;13.270;2023-03-01T05:07:54;20.27;;;12.20;;
15536;SDS011;7870;52.448;13.270;2023-03-01T05:10:26;17.95;;;11.80;;
15536;SDS011;7870;52.448;13.270;2023-03-01T05:12:55;20.10;;;13.43;;
15536;SDS011;7870;52.448;13.270;2023-03-01T05:15:24;18.67;;;11.73;;
15536;SDS011;7870;52.448;13.270;2023-03-01T05:17:57;18.33;;;12.27;;
15536;SDS011;7870;52.448;13.270;2023-03-01T05:20:26;18.70;;;12.18;;
15536;SDS011;7870;52.448;13.270;2023-03-01T05:22:58;17.83;;;12.85;;
15536;SDS011;7870;52.448;13.270;2023-03-01T05:25:26;17.27;;;11.50;;
15536;SDS011;7870;52.448;13.270;2023-03-01T05:27:52;18.73;;;12.65;;
15536;SDS011;7870;52.448;13.270;2023-03-01T05:30:19;16.40;;;12.13;;
15536;SDS011;7870;52.448;13.270;2023-03-01T05:32:47;17.50;;;12.18;;
15536;SDS011;7870;52.448;13.270;2023-03-01T05:35:16;19.33;;;12.52;;
15536;SDS011;7870;52.448;13.270;2023-03-01T05:37:44;18.95;;;12.20;;
15536;SDS011;7870;52.448;13.270;2023-03-01T05:40:12;20.13;;;12.63;;
15536;SDS011;7870;52.448;13.270;2023-03-01T05:42:44;20.10;;;12.40;;
15536;SDS011;7870;52.448;13.270;2023-03-01T05:45:15;17.83;;;12.18;;
15536;SDS011;7870;52.448;13.270;2023-03-01T05:47:42;19.95;;;12.88;;
15536;SDS011;7870;52.448;13.270;2023-03-01T05:50:11;17.00;;;12.20;;
15536;SDS011;7870;52.448;13.270;2023-03-01T05:52:48;19.65;;;12.48;;
15536;SDS011;7870;52.448;13.270;2023-03-01T05:55:17;16.77;;;12.50;;
15536;SDS011;7870;52.448;13.270;2023-03-01T05:57:44;18.77;;;12.95;;
15536;SDS011;7870;52.448;13.270;2023-03-01T06:00:11;19.50;;;13.00;;
15536;SDS011;7870;52.448;13.270;2023-03-01T06:02:39;20.65;;;13.00;;
15536;SDS011;7870;52.448;13.270;2023-03-01T06:05:07;19.30;;;11.85;;
15536;SDS011;7870;52.448;13.270;2023-03-01T06:07:34;23.45;;;12.27;;
15536;SDS011;7870;52.448;13.270;2023-03-01T06:10:02;16.23;;;11.90;;
15536;SDS011;7870;52.448;13.270;2023-03-01T06:12:30;21.73;;;12.95;;
15536;SDS011;7870;52.448;13.270;2023-03-01T06:14:57;16.42;;;12.43;;
15536;SDS011;7870;52.448;13.270;2023-03-01T06:17:24;16.58;;;12.13;;
15536;SDS011;7870;52.448;13.270;2023-03-01T06:19:50;17.15;;;12.32;;
15536;SDS011;7870;52.448;13.270;2023-03-01T06:22:17;17.52;;;12.00;;
15536;SDS011;7870;52.448;13.270;2023-03-01T06:24:43;15.40;;;12.13;;
15536;SDS011;7870;52.448;13.270;2023-03-01T06:27:10;19.63;;;11.57;;
15536;SDS011;7870;52.448;13.270;2023-03-01T06:29:37;16.20;;;12.20;;
15536;SDS011;7870;52.448;13.270;2023-03-01T06:32:03;17.17;;;11.65;;
15536;SDS011;7870;52.448;13.270;2023-03-01T06:34:30;19.98;;;12.75;;
15536;SDS011;7870;52.448;13.270;2023-03-01T06:36:57;17.77;;;12.13;;
15536;SDS011;7870;52.448;13.270;2023-03-01T06:39:23;19.63;;;13.45;;
15536;SDS011;7870;52.448;13.270;2023-03-01T06:41:50;16.80;;;11.55;;
15536;SDS011;7870;52.448;13.270;2023-03-01T06:44:19;16.13;;;11.32;;
15536;SDS011;7870;52.448;13.270;2023-03-01T06:46:45;17.55;;;12.38;;
15536;SDS011;7870;52.448;13.270;2023-03-01T06:49:12;16.88;;;11.23;;
15536;SDS011;7870;52.448;13.270;2023-03-01T06:51:38;23.80;;;12.15;;
15536;SDS011;7870;52.448;13.270;2023-03-01T06:54:05;18.45;;;12.80;;
15536;SDS011;7870;52.448;13.270;2023-03-01T06:56:31;20.65;;;12.80;;
15536;SDS011;7870;52.448;13.270;2023-03-01T06:58:58;19.33;;;13.50;;
15536;SDS011;7870;52.448;13.270;2023-03-01T07:01:25;17.42;;;12.82;;
15536;SDS011;7870;52.448;13.270;2023-03-01T07:03:52;18.17;;;13.23;;
15536;SDS011;7870;52.448;13.270;2023-03-01T07:06:18;19.40;;;13.48;;
15536;SDS011;7870;52.448;13.270;2023-03-01T07:08:45;20.10;;;13.10;;
15536;SDS011;7870;52.448;13.270;2023-03-01T07:11:12;18.83;;;13.20;;
15536;SDS011;7870;52.448;13.270;2023-03-01T07:13:39;15.60;;;12.57;;
15536;SDS011;7870;52.448;13.270;2023-03-01T07:16:05;19.85;;;14.02;;
15536;SDS011;7870;52.448;13.270;2023-03-01T07:18:32;17.50;;;13.77;;
15536;SDS011;7870;52.448;13.270;2023-03-01T07:21:03;20.30;;;13.98;;
15536;SDS011;7870;52.448;13.270;2023-03-01T07:23:31;19.45;;;14.05;;
15536;SDS011;7870;52.448;13.270;2023-03-01T07:26:01;20.42;;;13.27;;
15536;SDS011;7870;52.448;13.270;2023-03-01T07:28:27;19.80;;;14.00;;
15536;SDS011;7870;52.448;13.270;2023-03-01T07:30:54;20.98;;;14.48;;
15536;SDS011;7870;52.448;13.270;2023-03-01T07:33:20;19.50;;;14.25;;
15536;SDS011;7870;52.448;13.270;2023-03-01T07:35:47;20.83;;;13.43;;
15536;SDS011;7870;52.448;13.270;2023-03-01T07:38:13;19.15;;;15.52;;
15536;SDS011;7870;52.448;13.270;2023-03-01T07:40:40;20.02;;;14.13;;
15536;SDS011;7870;52.448;13.270;2023-03-01T07:43:06;21.90;;;14.30;;
15536;SDS011;7870;52.448;13.270;2023-03-01T07:45:33;22.75;;;14.38;;
15536;SDS011;7870;52.448;13.270;2023-03-01T07:48:00;21.25;;;14.50;;
15536;SDS011;7870;52.448;13.270;2023-03-01T07:50:26;22.98;;;14.65;;
15536;SDS011;7870;52.448;13.270;2023-03-01T07:52:53;24.77;;;14.68;;
15536;SDS011;7870;52.448;13.270;2023-03-01T07:55:19;23.83;;;14.25;;
15536;SDS011;7870;52.448;13.270;2023-03-01T07:57:46;29.27;;;15.60;;
15536;SDS011;7870;52.448;13.270;2023-03-01T08:00:12;15.00;;;10.70;;
15536;SDS011;7870;52.448;13.270;2023-03-01T08:02:39;18.45;;;12.85;;
15536;SDS011;7870;52.448;13.270;2023-03-01T08:05:08;20.58;;;11.85;;
15536;SDS011;7870;52.448;13.270;2023-03-01T08:07:36;14.25;;;11.35;;
15536;SDS011;7870;52.448;13.270;2023-03-01T08:10:03;15.98;;;10.45;;
15536;SDS011;7870;52.448;13.270;2023-03-01T08:12:30;13.77;;;9.32;;
15536;SDS011;7870;52.448;13.270;2023-03-01T08:14:56;15.00;;;10.23;;
15536;SDS011;7870;52.448;13.270;2023-03-01T08:17:23;12.98;;;8.57;;
15536;SDS011;7870;52.448;13.270;2023-03-01T08:19:50;12.32;;;9.77;;
15536;SDS011;7870;52.448;13.270;2023-03-01T08:22:16;11.95;;;9.43;;
15536;SDS011;7870;52.448;13.270;2023-03-01T08:24:43;11.20;;;8.45;;
15536;SDS011;7870;52.448;13.270;2023-03-01T08:27:09;11.70;;;8.63;;
15536;SDS011;7870;52.448;13.270;2023-03-01T08:29:36;11.93;;;8.15;;
15536;SDS011;7870;52.448;13.270;2023-03-01T08:32:03;11.95;;;8.30;;
15536;SDS011;7870;52.448;13.270;2023-03-01T08:34:29;9.20;;;7.32;;
15536;SDS011;7870;52.448;13.270;2023-03-01T08:36:57;13.30;;;8.88;;
15536;SDS011;7870;52.448;13.270;2023-03-01T08:39:24;12.63;;;8.15;;
15536;SDS011;7870;52.448;13.270;2023-03-01T08:41:50;9.48;;;7.25;;
15536;SDS011;7870;52.448;13.270;2023-03-01T08:44:17;11.93;;;7.72;;
15536;SDS011;7870;52.448;13.270;2023-03-01T08:46:44;10.30;;;7.30;;
15536;SDS011;7870;52.448;13.270;2023-03-01T08:49:13;9.73;;;7.10;;
15536;SDS011;7870;52.448;13.270;2023-03-01T08:51:40;9.10;;;7.50;;
15536;SDS011;7870;52.448;13.270;2023-03-01T08:54:11;9.23;;;6.78;;
15536;SDS011;7870;52.448;13.270;2023-03-01T08:56:45;10.52;;;7.43;;
15536;SDS011;7870;52.448;13.270;2023-03-01T08:59:12;11.90;;;7.63;;
15536;SDS011;7870;52.448;13.270;2023-03-01T09:01:40;9.35;;;6.07;;
15536;SDS011;7870;52.448;13.270;2023-03-01T09:04:09;9.20;;;6.18;;
15536;SDS011;7870;52.448;13.270;2023-03-01T09:06:37;8.75;;;6.57;;
15536;SDS011;7870;52.448;13.270;2023-03-01T09:09:04;11.68;;;6.45;;
15536;SDS011;7870;52.448;13.270;2023-03-01T09:11:31;12.55;;;7.20;;
15536;SDS011;7870;52.448;13.270;2023-03-01T09:13:59;9.23;;;6.35;;
15536;SDS011;7870;52.448;13.270;2023-03-01T09:16:26;10.07;;;5.85;;
15536;SDS011;7870;52.448;13.270;2023-03-01T09:18:53;7.55;;;5.18;;
15536;SDS011;7870;52.448;13.270;2023-03-01T09:21:21;6.75;;;4.97;;
15536;SDS011;7870;52.448;13.270;2023-03-01T09:24:05;9.50;;;4.75;;
15536;SDS011;7870;52.448;13.270;2023-03-01T09:26:32;15.70;;;6.28;;
15536;SDS011;7870;52.448;13.270;2023-03-01T09:28:59;9.73;;;4.97;;
15536;SDS011;7870;52.448;13.270;2023-03-01T09:31:25;9.05;;;4.35;;
15536;SDS011;7870;52.448;13.270;2023-03-01T09:33:52;10.10;;;5.03;;
15536;SDS011;7870;52.448;13.270;2023-03-01T09:36:20;7.72;;;4.47;;
15536;SDS011;7870;52.448;13.270;2023-03-01T09:38:49;7.07;;;4.93;;
15536;SDS011;7870;52.448;13.270;2023-03-01T09:47:17;9.20;;;5.35;;
15536;SDS011;7870;52.448;13.270;2023-03-01T09:49:50;7.28;;;4.95;;
15536;SDS011;7870;52.448;13.270;2023-03-01T09:55:09;8.57;;;4.93;;
15536;SDS011;7870;52.448;13.270;2023-03-01T09:57:43;7.43;;;4.45;;
15536;SDS011;7870;52.448;13.270;2023-03-01T10:00:26;7.55;;;5.10;;
15536;SDS011;7870;52.448;13.270;2023-03-01T10:02:58;7.78;;;5.60;;
15536;SDS011;7870;52.448;13.270;2023-03-01T10:05:38;11.00;;;6.07;;
15536;SDS011;7870;52.448;13.270;2023-03-01T10:10:37;8.50;;;6.18;;
15536;SDS011;7870;52.448;13.270;2023-03-01T10:13:10;7.60;;;5.68;;
15536;SDS011;7870;52.448;13.270;2023-03-01T10:15:45;7.70;;;5.28;;
15536;SDS011;7870;52.448;13.270;2023-03-01T10:18:16;8.25;;;5.45;;
15536;SDS011;7870;52.448;13.270;2023-03-01T10:20:51;10.60;;;5.90;;
15536;SDS011;7870;52.448;13.270;2023-03-01T10:23:20;10.10;;;6.15;;
15536;SDS011;7870;52.448;13.270;2023-03-01T10:34:10;9.63;;;6.25;;
15536;SDS011;7870;52.448;13.270;2023-03-01T10:36:39;11.38;;;5.35;;
15536;SDS011;7870;52.448;13.270;2023-03-01T10:39:40;11.90;;;5.60;;
15536;SDS011;7870;52.448;13.270;2023-03-01T10:42:02;10.23;;;5.93;;
15536;SDS011;7870;52.448;13.270;2023-03-01T10:44:43;9.77;;;5.45;;
15536;SDS011;7870;52.448;13.270;2023-03-01T10:47:21;10.73;;;5.40;;
15536;SDS011;7870;52.448;13.270;2023-03-01T10:50:00;13.43;;;5.32;;
15536;SDS011;7870;52.448;13.270;2023-03-01T10:55:03;9.55;;;5.65;;
15536;SDS011;7870;52.448;13.270;2023-03-01T10:57:46;10.63;;;4.90;;
15536;SDS011;7870;52.448;13.270;2023-03-01T11:02:39;13.98;;;6.78;;
15536;SDS011;7870;52.448;13.270;2023-03-01T11:07:48;9.25;;;4.60;;
15536;SDS011;7870;52.448;13.270;2023-03-01T11:10:17;7.50;;;4.50;;
15536;SDS011;7870;52.448;13.270;2023-03-01T11:12:44;8.52;;;5.00;;
15536;SDS011;7870;52.448;13.270;2023-03-01T11:15:22;9.27;;;4.63;;
15536;SDS011;7870;52.448;13.270;2023-03-01T11:17:53;12.65;;;5.13;;
15536;SDS011;7870;52.448;13.270;2023-03-01T11:20:38;14.10;;;4.50;;
15536;SDS011;7870;52.448;13.270;2023-03-01T11:23:14;6.97;;;4.72;;
15536;SDS011;7870;52.448;13.270;2023-03-01T11:25:42;7.30;;;5.15;;
15536;SDS011;7870;52.448;13.270;2023-03-01T11:28:12;6.07;;;4.22;;
15536;SDS011;7870;52.448;13.270;2023-03-01T11:30:44;7.20;;;4.78;;
15536;SDS011;7870;52.448;13.270;2023-03-01T11:33:41;11.95;;;5.03;;
15536;SDS011;7870;52.448;13.270;2023-03-01T11:39:02;6.53;;;4.03;;
15536;SDS011;7870;52.448;13.270;2023-03-01T11:41:32;6.53;;;4.13;;
15536;SDS011;7870;52.448;13.270;2023-03-01T11:44:01;7.13;;;3.85;;
15536;SDS011;7870;52.448;13.270;2023-03-01T11:46:40;9.55;;;4.32;;
15536;SDS011;7870;52.448;13.270;2023-03-01T11:49:32;6.82;;;4.13;;
15536;SDS011;7870;52.448;13.270;2023-03-01T12:03:23;9.32;;;4.25;;
15536;SDS011;7870;52.448;13.270;2023-03-01T12:06:02;8.07;;;4.07;;
15536;SDS011;7870;52.448;13.270;2023-03-01T12:08:36;7.35;;;4.10;;
15536;SDS011;7870;52.448;13.270;2023-03-01T12:11:23;7.15;;;4.65;;
15536;SDS011;7870;52.448;13.270;2023-03-01T12:22:29;8.63;;;5.45;;
15536;SDS011;7870;52.448;13.270;2023-03-01T12:28:04;8.70;;;5.88;;
15536;SDS011;7870;52.448;13.270;2023-03-01T12:38:32;8.43;;;5.20;;
15536;SDS011;7870;52.448;13.270;2023-03-01T12:47:02;8.75;;;4.60;;
15536;SDS011;7870;52.448;13.270;2023-03-01T12:50:10;9.70;;;4.30;;
15536;SDS011;7870;52.448;13.270;2023-03-01T12:55:31;7.65;;;3.85;;
15536;SDS011;7870;52.448;13.270;2023-03-01T12:58:04;8.35;;;5.07;;
15536;SDS011;7870;52.448;13.270;2023-03-01T13:00:45;9.20;;;4.00;;
15536;SDS011;7870;52.448;13.270;2023-03-01T13:04:00;7.00;;;4.10;;
15536;SDS011;7870;52.448;13.270;2023-03-01T13:06:49;7.40;;;3.90;;
15536;SDS011;7870;52.448;13.270;2023-03-01T13:17:50;7.85;;;4.10;;
15536;SDS011;7870;52.448;13.270;2023-03-01T13:20:27;7.10;;;4.15;;
15536;SDS011;7870;52.448;13.270;2023-03-01T13:23:11;9.20;;;4.03;;
15536;SDS011;7870;52.448;13.270;2023-03-01T13:31:01;7.22;;;4.18;;
15536;SDS011;7870;52.448;13.270;2023-03-01T13:35:55;7.47;;;3.70;;
15536;SDS011;7870;52.448;13.270;2023-03-01T13:38:39;7.80;;;4.15;;
15536;SDS011;7870;52.448;13.270;2023-03-01T13:41:15;6.88;;;3.47;;
15536;SDS011;7870;52.448;13.270;2023-03-01T13:43:44;6.13;;;3.67;;
15536;SDS011;7870;52.448;13.270;2023-03-01T13:46:16;6.35;;;3.83;;
15536;SDS011;7870;52.448;13.270;2023-03-01T13:48:45;7.97;;;4.32;;
15536;SDS011;7870;52.448;13.270;2023-03-01T13:51:16;8.52;;;3.85;;
15536;SDS011;7870;52.448;13.270;2023-03-01T13:53:48;7.25;;;3.75;;
15536;SDS011;7870;52.448;13.270;2023-03-01T13:56:16;7.95;;;4.43;;
15536;SDS011;7870;52.448;13.270;2023-03-01T13:59:04;6.30;;;3.53;;
15536;SDS011;7870;52.448;13.270;2023-03-01T14:01:33;8.27;;;3.67;;
15536;SDS011;7870;52.448;13.270;2023-03-01T14:04:02;6.25;;;3.85;;
15536;SDS011;7870;52.448;13.270;2023-03-01T14:06:31;8.30;;;3.83;;
15536;SDS011;7870;52.448;13.270;2023-03-01T14:12:06;4.88;;;3.55;;
15536;SDS011;7870;52.448;13.270;2023-03-01T14:14:59;9.50;;;3.72;;
15536;SDS011;7870;52.448;13.270;2023-03-01T14:20:19;9.15;;;3.88;;
15536;SDS011;7870;52.448;13.270;2023-03-01T14:22:52;7.00;;;4.00;;
15536;SDS011;7870;52.448;13.270;2023-03-01T14:25:33;8.25;;;5.47;;
15536;SDS011;7870;52.448;13.270;2023-03-01T14:30:42;8.32;;;4.15;;
15536;SDS011;7870;52.448;13.270;2023-03-01T14:38:36;9.02;;;3.95;;
15536;SDS011;7870;52.448;13.270;2023-03-01T14:43:36;5.45;;;3.80;;
15536;SDS011;7870;52.448;13.270;2023-03-01T14:46:04;5.95;;;3.63;;
15536;SDS011;7870;52.448;13.270;2023-03-01T14:48:30;5.05;;;3.17;;
15536;SDS011;7870;52.448;13.270;2023-03-01T14:50:57;5.85;;;3.22;;
15536;SDS011;7870;52.448;13.270;2023-03-01T14:53:24;6.18;;;3.40;;
15536;SDS011;7870;52.448;13.270;2023-03-01T14:55:59;5.25;;;3.63;;
15536;SDS011;7870;52.448;13.270;2023-03-01T14:58:28;4.60;;;2.90;;
15536;SDS011;7870;52.448;13.270;2023-03-01T15:00:56;4.45;;;2.75;;
15536;SDS011;7870;52.448;13.270;2023-03-01T15:03:26;5.88;;;3.08;;
15536;SDS011;7870;52.448;13.270;2023-03-01T15:05:57;5.95;;;3.40;;
15536;SDS011;7870;52.448;13.270;2023-03-01T15:08:24;7.18;;;3.58;;
15536;SDS011;7870;52.448;13.270;2023-03-01T15:10:55;6.63;;;3.55;;
15536;SDS011;7870;52.448;13.270;2023-03-01T15:13:34;6.72;;;3.40;;
15536;SDS011;7870;52.448;13.270;2023-03-01T15:16:05;8.38;;;3.67;;
15536;SDS011;7870;52.448;13.270;2023-03-01T15:18:34;7.97;;;3.72;;
15536;SDS011;7870;52.448;13.270;2023-03-01T15:21:08;8.80;;;3.47;;
15536;SDS011;7870;52.448;13.270;2023-03-01T15:23:39;7.70;;;2.97;;
15536;SDS011;7870;52.448;13.270;2023-03-01T15:26:06;5.45;;;2.50;;
15536;SDS011;7870;52.448;13.270;2023-03-01T15:28:48;5.22;;;2.70;;
15536;SDS011;7870;52.448;13.270;2023-03-01T15:31:18;8.00;;;3.30;;
15536;SDS011;7870;52.448;13.270;2023-03-01T15:33:46;7.88;;;3.03;;
15536;SDS011;7870;52.448;13.270;2023-03-01T15:36:30;6.75;;;3.20;;
15536;SDS011;7870;52.448;13.270;2023-03-01T15:39:25;5.47;;;2.92;;
15536;SDS011;7870;52.448;13.270;2023-03-01T15:42:04;7.13;;;3.03;;
15536;SDS011;7870;52.448;13.270;2023-03-01T15:44:33;8.25;;;2.85;;
15536;SDS011;7870;52.448;13.270;2023-03-01T15:47:22;6.93;;;2.63;;
15536;SDS011;7870;52.448;13.270;2023-03-01T15:49:50;6.43;;;3.05;;
15536;SDS011;7870;52.448;13.270;2023-03-01T15:54:58;6.35;;;3.72;;
15536;SDS011;7870;52.448;13.270;2023-03-01T15:57:26;4.95;;;2.67;;
15536;SDS011;7870;52.448;13.270;2023-03-01T15:59:52;5.05;;;2.83;;
15536;SDS011;7870;52.448;13.270;2023-03-01T16:02:21;5.90;;;3.15;;
15536;SDS011;7870;52.448;13.270;2023-03-01T16:04:49;4.38;;;2.97;;
15536;SDS011;7870;52.448;13.270;2023-03-01T16:07:15;4.55;;;2.85;;
15536;SDS011;7870;52.448;13.270;2023-03-01T16:09:42;4.47;;;2.92;;
15536;SDS011;7870;52.448;13.270;2023-03-01T16:12:13;4.57;;;2.70;;
15536;SDS011;7870;52.448;13.270;2023-03-01T16:14:40;6.45;;;2.90;;
15536;SDS011;7870;52.448;13.270;2023-03-01T16:17:07;7.30;;;2.90;;
15536;SDS011;7870;52.448;13.270;2023-03-01T16:19:37;7.18;;;2.70;;
15536;SDS011;7870;52.448;13.270;2023-03-01T16:22:04;6.68;;;3.22;;
15536;SDS011;7870;52.448;13.270;2023-03-01T16:24:31;8.82;;;3.33;;
15536;SDS011;7870;52.448;13.270;2023-03-01T16:26:57;5.68;;;3.05;;
15536;SDS011;7870;52.448;13.270;2023-03-01T16:29:24;4.90;;;3.00;;
15536;SDS011;7870;52.448;13.270;2023-03-01T16:31:50;5.32;;;3.30;;
15536;SDS011;7870;52.448;13.270;2023-03-01T16:34:17;6.55;;;3.50;;
15536;SDS011;7870;52.448;13.270;2023-03-01T16:36:44;6.10;;;3.60;;
15536;SDS011;7870;52.448;13.270;2023-03-01T16:39:10;5.68;;;3.17;;
15536;SDS011;7870;52.448;13.270;2023-03-01T16:41:37;7.82;;;3.22;;